createdAt,value
2023-03-19T00:00:31.492Z,43.08
2023-03-19T00:02:00.600Z,42.96
2023-03-19T00:03:31.469Z,43.08
2023-03-19T00:04:54.376Z,43.32
2023-03-19T00:06:21.357Z,43.31
2023-03-19T00:07:43.817Z,43.34
2023-03-19T00:09:07.320Z,43.36
2023-03-19T00:10:40.783Z,43.52
2023-03-19T00:12:12.237Z,43.59
2023-03-19T00:13:33.508Z,43.61
2023-03-19T00:15:27.542Z,43.64
2023-03-19T00:17:02.402Z,43.55
2023-03-19T00:18:23.523Z,43.95
2023-03-19T00:20:06.261Z,44.02
2023-03-19T00:21:30.815Z,43.67
2023-03-19T00:22:53.245Z,44.01
2023-03-19T00:24:17.675Z,43.91
2023-03-19T00:25:39.730Z,43.93
2023-03-19T00:27:03.925Z,44.00
2023-03-19T00:28:27.477Z,44.04
2023-03-19T00:29:52.740Z,44.16
2023-03-19T00:31:21.770Z,44.38
2023-03-19T00:32:47.423Z,44.38
2023-03-19T00:34:10.612Z,44.40
2023-03-19T00:35:32.121Z,44.52
2023-03-19T00:36:56.546Z,44.34
2023-03-19T00:38:18.045Z,44.44
2023-03-19T00:39:43.076Z,44.48
2023-03-19T00:41:06.143Z,44.57
2023-03-19T00:42:34.165Z,44.83
2023-03-19T00:43:57.409Z,44.81
2023-03-19T00:45:42.317Z,44.79
2023-03-19T00:47:08.250Z,44.97
2023-03-19T00:48:30.499Z,45.16
2023-03-19T00:49:52.713Z,45.00
2023-03-19T00:51:14.780Z,45.07
2023-03-19T00:52:43.359Z,45.09
2023-03-19T00:54:05.019Z,45.08
2023-03-19T00:55:27.612Z,45.02
2023-03-19T00:56:53.756Z,45.12
2023-03-19T00:58:16.204Z,45.34
2023-03-19T00:59:38.345Z,45.30
2023-03-19T01:00:59.540Z,45.27
2023-03-19T01:02:24.892Z,45.38
2023-03-19T01:03:50.243Z,45.16
2023-03-19T01:05:17.545Z,45.43
2023-03-19T01:06:40.025Z,45.37
2023-03-19T01:08:03.015Z,45.22
2023-03-19T01:09:25.795Z,45.30
2023-03-19T01:10:47.573Z,45.27
2023-03-19T01:12:10.509Z,45.36
2023-03-19T01:13:32.551Z,45.47
2023-03-19T01:15:01.170Z,45.64
2023-03-19T01:16:23.798Z,45.51
2023-03-19T01:17:45.984Z,45.60
2023-03-19T01:19:10.055Z,45.48
2023-03-19T01:20:31.984Z,45.50
2023-03-19T01:21:54.830Z,45.49
2023-03-19T01:23:19.934Z,45.48
2023-03-19T01:24:43.320Z,45.68
2023-03-19T01:26:06.034Z,45.66
2023-03-19T01:27:27.163Z,45.69
2023-03-19T01:28:50.616Z,45.84
2023-03-19T01:30:14.671Z,45.83
2023-03-19T01:31:56.475Z,45.86
2023-03-19T01:33:35.125Z,45.85
2023-03-19T01:35:03.767Z,45.74
2023-03-19T01:36:26.684Z,45.90
2023-03-19T01:37:57.817Z,46.08
2023-03-19T01:39:28.989Z,45.97
2023-03-19T01:40:59.303Z,46.17
2023-03-19T01:42:23.848Z,46.05
2023-03-19T01:44:34.563Z,46.06
2023-03-19T01:46:44.996Z,46.17
2023-03-19T01:48:21.225Z,46.31
2023-03-19T01:49:59.745Z,46.25
2023-03-19T01:51:26.840Z,46.28
2023-03-19T01:52:48.504Z,46.30
2023-03-19T01:54:30.647Z,46.27
2023-03-19T01:56:14.308Z,46.43
2023-03-19T01:57:50.254Z,46.34
2023-03-19T01:59:41.813Z,46.37
2023-03-19T02:01:18.181Z,46.37
2023-03-19T02:02:47.835Z,46.64
2023-03-19T02:04:28.184Z,46.54
2023-03-19T02:05:54.204Z,46.75
2023-03-19T02:07:21.632Z,46.56
2023-03-19T02:08:45.656Z,46.70
2023-03-19T02:10:13.337Z,46.64
2023-03-19T02:11:42.234Z,46.73
2023-03-19T02:13:03.900Z,46.80
2023-03-19T02:14:28.893Z,46.71
2023-03-19T02:15:52.309Z,46.71
2023-03-19T02:17:15.496Z,46.73
2023-03-19T02:18:38.584Z,46.82
2023-03-19T02:20:08.873Z,46.78
2023-03-19T02:21:31.772Z,46.78
2023-03-19T02:23:01.965Z,46.69
2023-03-19T02:24:33.910Z,46.97
2023-03-19T02:26:12.353Z,46.97
2023-03-19T02:27:34.817Z,46.86
2023-03-19T02:28:57.486Z,46.96
2023-03-19T02:30:29.499Z,46.97
2023-03-19T02:31:54.635Z,47.14
2023-03-19T02:33:20.470Z,46.96
2023-03-19T02:34:44.194Z,47.00
2023-03-19T02:36:11.166Z,47.01
2023-03-19T02:37:43.942Z,46.88
2023-03-19T02:39:09.228Z,46.85
2023-03-19T02:40:35.642Z,46.79
2023-03-19T02:41:59.625Z,46.57
2023-03-19T02:43:23.908Z,46.93
2023-03-19T02:44:52.491Z,47.06
2023-03-19T02:46:14.894Z,46.92
2023-03-19T02:47:39.260Z,46.98
2023-03-19T02:49:01.281Z,46.94
2023-03-19T02:50:22.210Z,46.78
2023-03-19T02:51:45.855Z,46.73
2023-03-19T02:53:08.728Z,46.87
2023-03-19T02:54:30.174Z,46.72
2023-03-19T02:55:57.066Z,46.98
2023-03-19T02:57:22.562Z,47.00
2023-03-19T02:58:45.714Z,47.05
2023-03-19T03:00:11.074Z,47.06
2023-03-19T03:01:36.053Z,47.07
2023-03-19T03:03:03.268Z,47.11
2023-03-19T03:04:24.318Z,46.73
2023-03-19T03:05:47.985Z,47.02
2023-03-19T03:07:09.383Z,47.18
2023-03-19T03:08:31.459Z,47.06
2023-03-19T03:09:57.903Z,46.75
2023-03-19T03:11:20.569Z,47.10
2023-03-19T03:12:48.204Z,47.10
2023-03-19T03:14:09.595Z,47.15
2023-03-19T03:15:31.923Z,46.99
2023-03-19T03:16:53.345Z,46.96
2023-03-19T03:18:15.739Z,46.92
2023-03-19T03:19:46.701Z,46.94
2023-03-19T03:21:20.230Z,47.09
2023-03-19T03:22:43.106Z,47.22
2023-03-19T03:24:05.088Z,47.15
2023-03-19T03:25:27.441Z,47.30
2023-03-19T03:26:49.749Z,47.47
2023-03-19T03:28:15.328Z,47.55
2023-03-19T03:29:37.142Z,47.39
2023-03-19T03:31:01.294Z,47.45
2023-03-19T03:32:24.086Z,47.47
2023-03-19T03:33:45.994Z,47.63
2023-03-19T03:35:09.437Z,47.59
2023-03-19T03:36:31.183Z,47.45
2023-03-19T03:37:53.575Z,47.59
2023-03-19T03:39:14.930Z,47.46
2023-03-19T03:40:37.672Z,47.61
2023-03-19T03:41:58.904Z,47.18
2023-03-19T03:43:23.521Z,47.40
2023-03-19T03:44:45.944Z,47.63
2023-03-19T03:46:09.297Z,47.58
2023-03-19T03:47:32.509Z,47.73
2023-03-19T03:48:55.016Z,47.55
2023-03-19T03:50:20.482Z,47.81
2023-03-19T03:51:44.387Z,47.48
2023-03-19T03:53:06.899Z,47.93
2023-03-19T03:54:29.217Z,47.62
2023-03-19T03:55:53.736Z,47.87
2023-03-19T03:57:19.435Z,47.82
2023-03-19T03:58:42.493Z,47.65
2023-03-19T04:00:06.058Z,47.82
2023-03-19T04:01:35.751Z,47.80
2023-03-19T04:02:59.425Z,47.82
2023-03-19T04:04:21.028Z,47.86
2023-03-19T04:05:44.661Z,47.78
2023-03-19T04:07:10.422Z,47.80
2023-03-19T04:08:43.273Z,47.87
2023-03-19T04:10:07.770Z,47.73
2023-03-19T04:11:29.773Z,47.94
2023-03-19T04:12:52.317Z,48.01
2023-03-19T04:14:14.709Z,48.15
2023-03-19T04:15:39.614Z,48.11
2023-03-19T04:17:02.363Z,48.38
2023-03-19T04:18:25.085Z,48.20
2023-03-19T04:19:47.841Z,48.19
2023-03-19T04:21:12.482Z,48.30
2023-03-19T04:22:35.059Z,48.30
2023-03-19T04:23:56.695Z,48.26
2023-03-19T04:25:19.249Z,48.38
2023-03-19T04:26:41.507Z,48.56
2023-03-19T04:28:13.579Z,48.47
2023-03-19T04:29:37.434Z,48.61
2023-03-19T04:31:02.894Z,48.51
2023-03-19T04:32:27.331Z,48.51
2023-03-19T04:33:50.865Z,48.35
2023-03-19T04:35:15.789Z,48.55
2023-03-19T04:36:38.694Z,48.56
2023-03-19T04:38:01.788Z,48.52
2023-03-19T04:39:23.381Z,48.62
2023-03-19T04:40:49.550Z,48.46
2023-03-19T04:42:12.707Z,48.66
2023-03-19T04:43:46.732Z,48.67
2023-03-19T04:45:11.305Z,48.71
2023-03-19T04:46:34.670Z,48.61
2023-03-19T04:47:58.329Z,48.68
2023-03-19T04:49:21.415Z,48.73
2023-03-19T04:50:45.858Z,48.39
2023-03-19T04:52:07.155Z,48.67
2023-03-19T04:53:29.263Z,48.56
2023-03-19T04:54:50.697Z,48.67
2023-03-19T04:56:16.319Z,48.66
2023-03-19T04:57:38.589Z,48.63
2023-03-19T04:59:01.610Z,48.56
2023-03-19T05:00:24.730Z,48.79
2023-03-19T05:01:49.945Z,48.82
2023-03-19T05:03:16.809Z,48.55
2023-03-19T05:04:40.300Z,48.69
2023-03-19T05:06:09.298Z,48.75
2023-03-19T05:07:31.106Z,48.75
2023-03-19T05:08:56.116Z,48.98
2023-03-19T05:10:20.718Z,48.84
2023-03-19T05:11:48.384Z,48.91
2023-03-19T05:13:18.425Z,48.76
2023-03-19T05:14:45.740Z,48.70
2023-03-19T05:16:29.775Z,48.75
2023-03-19T05:17:52.514Z,48.75
2023-03-19T05:19:16.706Z,48.70
2023-03-19T05:20:39.016Z,48.60
2023-03-19T05:22:06.585Z,48.69
2023-03-19T05:23:29.478Z,48.67
2023-03-19T05:25:00.059Z,48.65
2023-03-19T05:26:22.774Z,48.48
2023-03-19T05:28:04.061Z,48.45
2023-03-19T05:29:27.269Z,48.47
2023-03-19T05:31:14.077Z,48.42
2023-03-19T05:32:43.254Z,48.50
2023-03-19T05:34:13.637Z,48.39
2023-03-19T05:35:42.923Z,48.36
2023-03-19T05:37:22.151Z,48.42
2023-03-19T05:38:49.637Z,48.37
2023-03-19T05:40:19.745Z,48.36
2023-03-19T05:41:43.858Z,48.31
2023-03-19T05:43:06.981Z,48.20
2023-03-19T05:44:50.127Z,48.27
2023-03-19T05:46:25.353Z,48.26
2023-03-19T05:47:50.585Z,48.07
2023-03-19T05:49:14.117Z,48.19
2023-03-19T05:50:37.261Z,48.07
2023-03-19T05:52:09.335Z,48.11
2023-03-19T05:53:35.320Z,47.99
2023-03-19T05:55:17.865Z,47.99
2023-03-19T05:56:44.449Z,47.95
2023-03-19T05:58:39.266Z,47.82
2023-03-19T06:00:02.345Z,47.72
2023-03-19T06:01:36.264Z,47.49
2023-03-19T06:03:07.379Z,47.30
2023-03-19T06:04:40.422Z,47.03
2023-03-19T06:06:11.416Z,46.66
2023-03-19T06:07:59.121Z,46.69
2023-03-19T06:09:50.591Z,46.38
2023-03-19T06:11:15.956Z,46.19
2023-03-19T06:12:44.964Z,46.20
2023-03-19T06:14:47.411Z,45.86
2023-03-19T06:16:32.928Z,45.83
2023-03-19T06:18:13.277Z,45.73
2023-03-19T06:19:42.419Z,45.39
2023-03-19T06:21:05.008Z,45.32
2023-03-19T06:22:27.465Z,45.14
2023-03-19T06:23:52.560Z,45.17
2023-03-19T06:25:22.096Z,44.47
2023-03-19T06:26:47.189Z,44.44
2023-03-19T06:28:10.540Z,44.16
2023-03-19T06:29:37.747Z,44.11
2023-03-19T06:31:22.629Z,43.87
2023-03-19T06:33:05.269Z,43.82
2023-03-19T06:34:30.488Z,43.69
2023-03-19T06:36:09.164Z,43.38
2023-03-19T06:37:39.559Z,43.45
2023-03-19T06:39:03.381Z,43.52
2023-03-19T06:40:26.750Z,43.34
2023-03-19T06:41:47.739Z,42.99
2023-03-19T06:43:14.311Z,42.96
2023-03-19T06:44:36.673Z,42.72
2023-03-19T06:45:58.774Z,42.61
2023-03-19T06:47:21.306Z,42.39
2023-03-19T06:48:43.791Z,42.17
2023-03-19T06:50:08.684Z,42.05
2023-03-19T06:51:35.249Z,41.93
2023-03-19T06:52:58.662Z,42.03
2023-03-19T06:54:20.708Z,41.49
2023-03-19T06:55:44.712Z,41.21
2023-03-19T06:57:07.099Z,41.65
2023-03-19T06:58:29.468Z,41.37
2023-03-19T06:59:51.945Z,40.94
2023-03-19T07:01:14.463Z,40.85
2023-03-19T07:02:37.083Z,41.11
2023-03-19T07:03:57.981Z,41.03
2023-03-19T07:05:20.382Z,41.08
2023-03-19T07:06:44.348Z,40.85
2023-03-19T07:08:12.110Z,40.79
2023-03-19T07:09:34.249Z,40.47
2023-03-19T07:10:58.523Z,40.26
2023-03-19T07:12:20.986Z,40.36
2023-03-19T07:13:43.603Z,39.93
2023-03-19T07:15:06.759Z,40.09
2023-03-19T07:16:27.716Z,39.71
2023-03-19T07:17:50.370Z,39.57
2023-03-19T07:19:12.667Z,39.53
2023-03-19T07:20:34.128Z,39.44
2023-03-19T07:21:58.353Z,39.13
2023-03-19T07:23:20.711Z,39.56
2023-03-19T07:24:42.870Z,39.58
2023-03-19T07:26:05.155Z,39.08
2023-03-19T07:27:27.085Z,38.72
2023-03-19T07:28:48.737Z,38.95
2023-03-19T07:30:12.409Z,38.40
2023-03-19T07:31:34.845Z,38.16
2023-03-19T07:32:57.142Z,37.76
2023-03-19T07:34:18.614Z,37.88
2023-03-19T07:35:39.761Z,37.55
2023-03-19T07:37:03.134Z,37.00
2023-03-19T07:38:25.130Z,36.54
2023-03-19T07:39:46.161Z,36.89
2023-03-19T07:41:08.359Z,36.82
2023-03-19T07:42:30.278Z,36.16
2023-03-19T07:43:52.294Z,36.03
2023-03-19T07:45:14.497Z,35.95
2023-03-19T07:46:36.453Z,35.78
2023-03-19T07:47:58.181Z,35.64
2023-03-19T07:49:20.669Z,35.38
2023-03-19T07:50:43.018Z,35.29
2023-03-19T07:52:06.882Z,35.04
2023-03-19T07:53:28.924Z,34.77
2023-03-19T07:54:52.490Z,34.73
2023-03-19T07:56:14.603Z,34.48
2023-03-19T07:57:36.861Z,34.40
2023-03-19T07:58:59.787Z,34.07
2023-03-19T08:00:25.415Z,33.71
2023-03-19T08:01:47.734Z,33.66
2023-03-19T08:03:10.263Z,33.50
2023-03-19T08:04:32.230Z,33.28
2023-03-19T08:05:54.062Z,33.53
2023-03-19T08:07:17.135Z,33.93
2023-03-19T08:08:39.533Z,33.70
2023-03-19T08:10:01.191Z,33.83
2023-03-19T08:11:24.304Z,33.47
2023-03-19T08:12:46.762Z,33.97
2023-03-19T08:14:09.203Z,34.02
2023-03-19T08:15:31.734Z,34.00
2023-03-19T08:16:53.932Z,33.45
2023-03-19T08:18:16.961Z,33.50
2023-03-19T08:19:39.322Z,33.17
2023-03-19T08:21:01.700Z,32.80
2023-03-19T08:22:25.465Z,31.93
2023-03-19T08:23:47.924Z,31.63
2023-03-19T08:25:10.744Z,31.14
2023-03-19T08:26:33.714Z,30.90
2023-03-19T08:27:56.403Z,30.85
2023-03-19T08:29:19.275Z,30.59
2023-03-19T08:30:41.570Z,30.57
2023-03-19T08:32:03.157Z,30.82
2023-03-19T08:33:25.752Z,30.44
2023-03-19T08:34:49.699Z,30.00
2023-03-19T08:36:14.277Z,29.73
2023-03-19T08:37:38.018Z,29.92
2023-03-19T08:39:00.691Z,29.47
2023-03-19T08:40:22.421Z,29.04
2023-03-19T08:41:44.768Z,28.45
2023-03-19T08:43:07.814Z,27.65
2023-03-19T08:44:30.126Z,27.32
2023-03-19T08:45:52.089Z,27.21
2023-03-19T08:47:14.726Z,26.68
2023-03-19T08:48:50.986Z,26.22
2023-03-19T08:50:47.970Z,25.69
2023-03-19T08:52:15.366Z,25.10
2023-03-19T08:53:40.130Z,23.50
2023-03-19T08:55:02.540Z,21.89
2023-03-19T08:56:25.433Z,21.13
2023-03-19T08:57:47.451Z,20.78
2023-03-19T08:59:10.038Z,20.43
2023-03-19T09:00:32.197Z,20.50
2023-03-19T09:01:55.480Z,20.23
2023-03-19T09:03:19.219Z,20.42
2023-03-19T09:04:42.507Z,20.52
2023-03-19T09:06:07.113Z,19.88
2023-03-19T09:07:29.241Z,20.51
2023-03-19T09:08:52.188Z,20.05
2023-03-19T09:10:14.430Z,20.29
2023-03-19T09:11:36.573Z,20.48
2023-03-19T09:12:58.918Z,20.85
2023-03-19T09:14:23.206Z,20.72
2023-03-19T09:15:45.298Z,21.01
2023-03-19T09:17:08.253Z,21.37
2023-03-19T09:18:31.205Z,21.65
2023-03-19T09:19:53.305Z,21.71
2023-03-19T09:21:15.400Z,21.41
2023-03-19T09:22:37.675Z,21.56
2023-03-19T09:24:01.352Z,21.61
2023-03-19T09:25:23.836Z,22.05
2023-03-19T09:26:46.212Z,22.63
2023-03-19T09:28:08.741Z,23.09
2023-03-19T09:29:31.550Z,22.51
2023-03-19T09:30:54.215Z,22.42
2023-03-19T09:32:16.678Z,21.77
2023-03-19T09:33:38.840Z,21.17
2023-03-19T09:35:00.866Z,20.80
2023-03-19T09:36:23.322Z,20.90
2023-03-19T09:37:45.942Z,21.58
2023-03-19T09:39:10.070Z,21.84
2023-03-19T09:40:38.310Z,22.15
2023-03-19T09:42:17.133Z,22.64
2023-03-19T09:43:58.285Z,22.83
2023-03-19T09:45:21.475Z,23.30
2023-03-19T09:46:48.469Z,23.09
2023-03-19T09:48:18.293Z,23.71
2023-03-19T09:49:45.012Z,23.47
2023-03-19T09:51:10.695Z,22.96
2023-03-19T09:52:43.354Z,21.37
2023-03-19T09:54:20.356Z,20.17
2023-03-19T09:55:47.020Z,19.32
2023-03-19T09:57:13.213Z,19.17
2023-03-19T09:58:38.577Z,19.43
2023-03-19T10:00:07.121Z,20.74
2023-03-19T10:01:35.801Z,20.40
2023-03-19T10:03:08.288Z,20.11
2023-03-19T10:04:43.885Z,20.16
2023-03-19T10:06:20.248Z,20.41
2023-03-19T10:07:56.991Z,20.71
2023-03-19T10:09:46.131Z,20.65
2023-03-19T10:11:29.939Z,20.36
2023-03-19T10:13:01.464Z,20.01
2023-03-19T10:14:49.490Z,20.11
2023-03-19T10:16:26.803Z,19.87
2023-03-19T10:17:58.821Z,19.90
2023-03-19T10:19:26.615Z,19.62
2023-03-19T10:20:56.844Z,19.46
2023-03-19T10:22:23.398Z,19.44
2023-03-19T10:23:50.203Z,19.39
2023-03-19T10:25:20.340Z,19.42
2023-03-19T10:26:43.565Z,19.04
2023-03-19T10:28:16.450Z,19.83
2023-03-19T10:29:39.340Z,19.92
2023-03-19T10:31:15.272Z,20.30
2023-03-19T10:32:42.521Z,20.58
2023-03-19T10:34:21.270Z,20.83
2023-03-19T10:35:46.400Z,21.01
2023-03-19T10:37:16.635Z,20.94
2023-03-19T10:38:42.612Z,21.08
2023-03-19T10:40:12.853Z,21.19
2023-03-19T10:41:51.363Z,20.92
2023-03-19T10:43:19.923Z,21.38
2023-03-19T10:44:50.262Z,21.66
2023-03-19T10:46:15.973Z,21.91
2023-03-19T10:47:41.801Z,22.47
2023-03-19T10:49:04.331Z,22.78
2023-03-19T10:50:31.766Z,22.36
2023-03-19T10:51:54.273Z,22.71
2023-03-19T10:53:32.364Z,23.21
2023-03-19T10:54:58.060Z,23.14
2023-03-19T10:56:23.274Z,23.02
2023-03-19T10:57:50.743Z,23.30
2023-03-19T10:59:28.000Z,23.21
2023-03-19T11:00:58.091Z,23.83
2023-03-19T11:02:23.401Z,23.62
2023-03-19T11:03:53.328Z,23.43
2023-03-19T11:05:26.077Z,23.44
2023-03-19T11:06:51.237Z,23.08
2023-03-19T11:08:35.010Z,23.92
2023-03-19T11:09:58.128Z,24.06
2023-03-19T11:11:28.280Z,24.19
2023-03-19T11:12:56.563Z,24.29
2023-03-19T11:14:20.979Z,24.42
2023-03-19T11:15:43.547Z,24.41
2023-03-19T11:17:08.951Z,24.66
2023-03-19T11:18:37.505Z,24.42
2023-03-19T11:20:01.122Z,24.96
2023-03-19T11:21:26.217Z,25.59
2023-03-19T11:22:51.714Z,25.49
2023-03-19T11:24:14.690Z,25.60
2023-03-19T11:25:40.839Z,25.42
2023-03-19T11:27:03.704Z,25.54
2023-03-19T11:28:33.782Z,25.68
2023-03-19T11:29:55.158Z,25.46
2023-03-19T11:31:25.622Z,25.30
2023-03-19T11:33:23.998Z,25.61
2023-03-19T11:34:54.095Z,25.03
2023-03-19T11:36:24.269Z,25.49
2023-03-19T11:37:55.998Z,25.69
2023-03-19T11:39:28.661Z,25.84
2023-03-19T11:41:02.254Z,25.48
2023-03-19T11:42:47.878Z,25.67
2023-03-19T11:44:18.156Z,26.28
2023-03-19T11:45:50.840Z,26.40
2023-03-19T11:47:27.099Z,26.55
2023-03-19T11:49:17.430Z,26.45
2023-03-19T11:50:48.295Z,26.56
2023-03-19T11:52:21.341Z,26.54
2023-03-19T11:54:00.486Z,26.68
2023-03-19T11:55:33.007Z,27.36
2023-03-19T11:57:02.395Z,27.27
2023-03-19T11:58:59.453Z,27.66
2023-03-19T12:00:33.339Z,28.19
2023-03-19T12:02:30.742Z,27.89
2023-03-19T12:04:11.221Z,28.31
2023-03-19T12:05:37.443Z,28.61
2023-03-19T12:07:08.683Z,28.68
2023-03-19T12:08:38.943Z,28.69
2023-03-19T12:10:18.702Z,29.11
2023-03-19T12:11:54.269Z,29.52
2023-03-19T12:13:32.282Z,29.93
2023-03-19T12:15:06.681Z,29.79
2023-03-19T12:16:46.562Z,30.04
2023-03-19T12:18:19.398Z,30.17
2023-03-19T12:20:12.870Z,30.04
2023-03-19T12:21:47.713Z,29.96
2023-03-19T12:23:21.707Z,29.72
2023-03-19T12:25:05.245Z,30.22
2023-03-19T12:26:33.455Z,30.09
2023-03-19T12:28:01.877Z,30.02
2023-03-19T12:29:32.033Z,29.95
2023-03-19T12:31:08.394Z,29.95
2023-03-19T12:32:54.210Z,30.01
2023-03-19T12:34:26.155Z,30.40
2023-03-19T12:35:51.910Z,30.44
2023-03-19T12:37:21.685Z,29.94
2023-03-19T12:38:52.406Z,29.92
2023-03-19T12:40:27.345Z,29.76
2023-03-19T12:42:06.669Z,30.08
2023-03-19T12:43:35.121Z,29.98
2023-03-19T12:45:00.244Z,30.54
2023-03-19T12:46:28.709Z,30.66
2023-03-19T12:47:58.621Z,30.45
2023-03-19T12:49:26.556Z,30.47
2023-03-19T12:50:54.927Z,30.39
2023-03-19T12:52:23.992Z,30.68
2023-03-19T12:53:55.517Z,30.42
2023-03-19T12:55:22.094Z,30.60
2023-03-19T12:56:51.094Z,30.95
2023-03-19T12:58:22.255Z,31.33
2023-03-19T12:59:53.243Z,31.14
2023-03-19T13:01:22.408Z,31.20
2023-03-19T13:02:49.254Z,31.24
2023-03-19T13:04:19.424Z,31.27
2023-03-19T13:05:46.090Z,31.08
2023-03-19T13:07:15.085Z,31.50
2023-03-19T13:08:45.116Z,31.64
2023-03-19T13:10:11.029Z,31.64
2023-03-19T13:11:42.576Z,31.48
2023-03-19T13:13:14.373Z,31.31
2023-03-19T13:14:48.490Z,31.30
2023-03-19T13:16:23.131Z,31.73
2023-03-19T13:17:58.495Z,31.62
2023-03-19T13:19:30.673Z,31.38
2023-03-19T13:21:05.894Z,31.29
2023-03-19T13:22:32.217Z,31.66
2023-03-19T13:24:06.444Z,32.06
2023-03-19T13:25:34.767Z,31.95
2023-03-19T13:27:01.110Z,31.52
2023-03-19T13:28:29.618Z,31.68
2023-03-19T13:30:07.839Z,31.43
2023-03-19T13:31:35.247Z,31.92
2023-03-19T13:33:05.180Z,31.44
2023-03-19T13:34:30.450Z,31.36
2023-03-19T13:35:53.810Z,31.44
2023-03-19T13:37:19.812Z,31.13
2023-03-19T13:38:46.334Z,30.97
2023-03-19T13:40:42.720Z,31.37
2023-03-19T13:42:20.193Z,31.49
2023-03-19T13:43:44.446Z,31.46
2023-03-19T13:45:51.403Z,31.35
2023-03-19T13:47:39.906Z,31.35
2023-03-19T13:49:33.756Z,31.14
2023-03-19T13:51:01.969Z,31.02
2023-03-19T13:52:49.754Z,30.98
2023-03-19T13:54:18.869Z,31.12
2023-03-19T13:55:52.516Z,31.11
2023-03-19T13:57:37.206Z,30.96
2023-03-19T13:59:25.393Z,31.44
2023-03-19T14:01:01.470Z,31.36
2023-03-19T14:02:54.544Z,30.90
2023-03-19T14:04:23.884Z,31.05
2023-03-19T14:05:49.806Z,31.07
2023-03-19T14:07:19.226Z,31.32
2023-03-19T14:08:47.828Z,31.21
2023-03-19T14:10:18.759Z,31.49
2023-03-19T14:11:41.695Z,31.64
2023-03-19T14:13:08.712Z,31.64
2023-03-19T14:14:32.171Z,31.70
2023-03-19T14:16:07.261Z,31.93
2023-03-19T14:17:35.158Z,32.82
2023-03-19T14:19:01.248Z,32.37
2023-03-19T14:20:39.323Z,32.45
2023-03-19T14:22:20.166Z,33.54
2023-03-19T14:23:46.809Z,33.95
2023-03-19T14:25:18.756Z,33.72
2023-03-19T14:26:44.815Z,33.52
2023-03-19T14:28:10.869Z,34.24
2023-03-19T14:29:36.506Z,34.71
2023-03-19T14:31:00.538Z,34.94
2023-03-19T14:32:31.579Z,34.84
2023-03-19T14:33:59.840Z,34.80
2023-03-19T14:35:26.524Z,34.15
2023-03-19T14:36:58.028Z,34.00
2023-03-19T14:38:33.452Z,34.38
2023-03-19T14:40:04.628Z,33.79
2023-03-19T14:41:32.486Z,34.34
2023-03-19T14:43:06.715Z,34.78
2023-03-19T14:44:46.028Z,33.93
2023-03-19T14:46:23.455Z,33.34
2023-03-19T14:48:08.415Z,33.86
2023-03-19T14:49:54.150Z,34.10
2023-03-19T14:51:39.836Z,33.60
2023-03-19T14:53:07.166Z,33.42
2023-03-19T14:54:37.446Z,33.54
2023-03-19T14:56:11.750Z,34.45
2023-03-19T14:57:37.420Z,34.10
2023-03-19T14:59:03.925Z,34.05
2023-03-19T15:00:26.446Z,33.21
2023-03-19T15:01:53.024Z,33.40
2023-03-19T15:03:23.116Z,33.88
2023-03-19T15:04:47.376Z,33.85
2023-03-19T15:06:13.756Z,33.38
2023-03-19T15:07:41.138Z,33.30
2023-03-19T15:09:11.495Z,33.34
2023-03-19T15:10:49.512Z,33.35
2023-03-19T15:12:31.430Z,33.93
2023-03-19T15:14:14.977Z,34.30
2023-03-19T15:15:44.546Z,33.84
2023-03-19T15:17:15.678Z,34.71
2023-03-19T15:18:39.291Z,34.97
2023-03-19T15:20:03.718Z,34.41
2023-03-19T15:21:29.755Z,34.25
2023-03-19T15:22:56.478Z,34.51
2023-03-19T15:24:19.409Z,34.76
2023-03-19T15:25:51.907Z,35.54
2023-03-19T15:27:24.521Z,35.23
2023-03-19T15:28:49.695Z,35.98
2023-03-19T15:30:22.267Z,36.84
2023-03-19T15:31:52.356Z,36.20
2023-03-19T15:33:37.307Z,36.38
2023-03-19T15:35:06.354Z,36.80
2023-03-19T15:36:37.940Z,36.81
2023-03-19T15:38:03.863Z,37.12
2023-03-19T15:39:48.763Z,36.91
2023-03-19T15:41:20.877Z,36.75
2023-03-19T15:42:45.055Z,35.79
2023-03-19T15:44:20.697Z,35.89
2023-03-19T15:45:47.637Z,35.92
2023-03-19T15:47:16.974Z,36.30
2023-03-19T15:48:45.968Z,36.79
2023-03-19T15:50:14.091Z,37.43
2023-03-19T15:51:37.323Z,38.27
2023-03-19T15:53:02.294Z,38.69
2023-03-19T15:54:25.466Z,38.44
2023-03-19T15:55:51.479Z,38.31
2023-03-19T15:57:18.385Z,39.12
2023-03-19T15:58:44.464Z,39.49
2023-03-19T16:00:11.674Z,39.38
2023-03-19T16:01:37.794Z,39.87
2023-03-19T16:03:00.187Z,39.84
2023-03-19T16:04:30.136Z,39.05
2023-03-19T16:06:00.116Z,38.98
2023-03-19T16:07:28.209Z,39.51
2023-03-19T16:08:53.631Z,39.42
2023-03-19T16:10:38.405Z,40.01
2023-03-19T16:12:01.929Z,40.52
2023-03-19T16:13:37.740Z,40.44
2023-03-19T16:15:00.412Z,40.68
2023-03-19T16:16:25.114Z,41.30
2023-03-19T16:17:49.424Z,41.47
2023-03-19T16:19:29.848Z,41.60
2023-03-19T16:21:02.120Z,40.74
2023-03-19T16:22:26.888Z,40.65
2023-03-19T16:23:56.175Z,40.67
2023-03-19T16:25:20.240Z,40.72
2023-03-19T16:26:44.757Z,41.30
2023-03-19T16:28:08.003Z,41.82
2023-03-19T16:29:35.849Z,41.83
2023-03-19T16:30:58.656Z,42.07
2023-03-19T16:32:23.586Z,42.35
2023-03-19T16:33:46.596Z,42.42
2023-03-19T16:35:14.934Z,42.84
2023-03-19T16:36:38.238Z,42.83
2023-03-19T16:38:13.778Z,43.07
2023-03-19T16:39:37.823Z,43.38
2023-03-19T16:41:18.529Z,43.70
2023-03-19T16:42:42.084Z,43.63
2023-03-19T16:44:17.058Z,43.61
2023-03-19T16:45:42.647Z,42.95
2023-03-19T16:47:12.234Z,42.33
2023-03-19T16:48:34.413Z,42.77
2023-03-19T16:49:56.854Z,43.08
2023-03-19T16:51:21.652Z,42.82
2023-03-19T16:52:44.300Z,42.59
2023-03-19T16:54:06.537Z,42.90
2023-03-19T16:55:32.271Z,43.47
2023-03-19T16:56:55.504Z,43.65
2023-03-19T16:58:20.463Z,43.77
2023-03-19T16:59:43.173Z,43.55
2023-03-19T17:01:16.142Z,43.61
2023-03-19T17:02:38.457Z,43.86
2023-03-19T17:04:01.799Z,44.03
2023-03-19T17:05:25.653Z,44.24
2023-03-19T17:06:59.402Z,44.14
2023-03-19T17:08:26.378Z,44.08
2023-03-19T17:09:48.362Z,43.44
2023-03-19T17:11:19.820Z,43.60
2023-03-19T17:12:46.603Z,43.76
2023-03-19T17:14:14.668Z,43.90
2023-03-19T17:15:40.372Z,44.00
2023-03-19T17:17:04.898Z,44.30
2023-03-19T17:18:29.634Z,44.26
2023-03-19T17:19:52.094Z,44.34
2023-03-19T17:21:17.486Z,44.52
2023-03-19T17:22:39.881Z,44.90
2023-03-19T17:24:05.830Z,44.88
2023-03-19T17:25:28.514Z,45.09
2023-03-19T17:26:50.792Z,45.00
2023-03-19T17:28:13.120Z,45.20
2023-03-19T17:29:39.936Z,45.15
2023-03-19T17:31:04.177Z,45.01
2023-03-19T17:32:29.113Z,44.60
2023-03-19T17:33:57.425Z,45.05
2023-03-19T17:35:23.755Z,45.52
2023-03-19T17:36:52.661Z,45.42
2023-03-19T17:38:20.198Z,45.48
2023-03-19T17:39:43.502Z,45.48
2023-03-19T17:41:14.276Z,45.66
2023-03-19T17:42:37.583Z,45.68
2023-03-19T17:44:01.534Z,45.84
2023-03-19T17:45:27.929Z,45.72
2023-03-19T17:46:53.136Z,45.75
2023-03-19T17:48:22.704Z,45.84
2023-03-19T17:49:45.870Z,45.76
2023-03-19T17:51:08.465Z,45.57
2023-03-19T17:52:31.060Z,45.84
2023-03-19T17:53:55.593Z,45.76
2023-03-19T17:55:19.737Z,46.14
2023-03-19T17:56:44.455Z,46.28
2023-03-19T17:58:06.979Z,45.98
2023-03-19T17:59:29.022Z,46.20
2023-03-19T18:00:52.883Z,46.33
2023-03-19T18:02:33.457Z,46.26
2023-03-19T18:03:59.448Z,46.53
2023-03-19T18:05:24.012Z,46.56
2023-03-19T18:06:49.928Z,46.53
2023-03-19T18:08:15.719Z,46.83
2023-03-19T18:09:38.171Z,46.90
2023-03-19T18:11:00.012Z,46.89
2023-03-19T18:12:21.884Z,46.77
2023-03-19T18:13:44.664Z,46.87
2023-03-19T18:15:08.107Z,46.64
2023-03-19T18:16:33.277Z,46.92
2023-03-19T18:17:56.994Z,46.84
2023-03-19T18:19:27.408Z,47.19
2023-03-19T18:20:50.128Z,47.03
2023-03-19T18:22:14.426Z,47.20
2023-03-19T18:23:36.736Z,47.11
2023-03-19T18:24:59.393Z,46.89
2023-03-19T18:26:24.968Z,47.05
2023-03-19T18:27:49.234Z,47.09
2023-03-19T18:29:11.774Z,47.00
2023-03-19T18:30:53.634Z,47.08
2023-03-19T18:32:24.982Z,47.01
2023-03-19T18:33:53.891Z,46.98
2023-03-19T18:35:20.078Z,47.09
2023-03-19T18:36:43.829Z,47.33
2023-03-19T18:38:13.669Z,47.29
2023-03-19T18:39:39.240Z,47.33
2023-03-19T18:41:15.860Z,47.29
2023-03-19T18:42:40.131Z,47.65
2023-03-19T18:44:05.109Z,47.85
2023-03-19T18:45:38.517Z,47.63
2023-03-19T18:47:17.686Z,47.66
2023-03-19T18:48:48.598Z,47.93
2023-03-19T18:50:23.269Z,48.04
2023-03-19T18:52:01.138Z,47.95